Time;durP1;ratioP1;P1;durP2;ratioP2;P2;SDS_P1;SDS_P2;PMS_P1;PMS_P2;Temp;Humidity;BMP_temperature;BMP_pressure;BME280_temperature;BME280_humidity;BME280_pressure;Samples;Min_cycle;Max_cycle;Signal;HPM_P1;HPM_P2
2024/01/31 00:01:15;;;;;;;19.88;11.98;;;;;;;6.61;100.00;99920.44;6100962;19;20029;-73
2024/01/31 00:03:15;;;;;;;21.52;12.73;;;;;;;6.57;100.00;99916.72;6102002;19;20014;-73
2024/01/31 00:05:16;;;;;;;18.58;12.38;;;;;;;6.50;100.00;99916.34;6101003;19;20041;-73
2024/01/31 00:07:16;;;;;;;22.95;12.48;;;;;;;6.51;100.00;99917.16;6100594;19;20666;-73
2024/01/31 00:09:16;;;;;;;21.48;13.13;;;;;;;6.47;100.00;99919.75;6100280;19;20368;-73
2024/01/31 00:11:17;;;;;;;20.10;11.93;;;;;;;6.45;100.00;99916.47;6101134;19;20011;-73
2024/01/31 00:13:17;;;;;;;25.65;12.52;;;;;;;6.45;100.00;99911.81;6100540;19;20103;-73
2024/01/31 00:15:17;;;;;;;19.50;12.52;;;;;;;6.42;100.00;99917.13;6100877;19;20010;-73
2024/01/31 00:17:18;;;;;;;20.35;12.90;;;;;;;6.52;100.00;99916.84;6099816;19;20007;-73
2024/01/31 00:19:18;;;;;;;22.85;12.80;;;;;;;6.52;100.00;99911.34;6100900;19;20013;-73
2024/01/31 00:21:18;;;;;;;21.23;12.88;;;;;;;6.51;100.00;99917.97;6099237;19;20003;-73
2024/01/31 00:23:19;;;;;;;19.55;12.40;;;;;;;6.50;100.00;99918.31;6100880;19;20492;-73
2024/01/31 00:25:19;;;;;;;20.80;11.80;;;;;;;6.64;100.00;99924.53;6100489;19;20599;-73
2024/01/31 00:27:20;;;;;;;20.00;11.73;;;;;;;6.58;100.00;99925.78;6099478;19;20009;-73
2024/01/31 00:29:20;;;;;;;19.67;11.80;;;;;;;6.55;100.00;99932.75;6099503;19;20007;-73
2024/01/31 00:31:20;;;;;;;18.08;10.95;;;;;;;6.59;100.00;99930.97;6100614;19;20011;-73
2024/01/31 00:33:21;;;;;;;16.67;10.32;;;;;;;6.65;100.00;99929.69;6099934;19;20009;-73
2024/01/31 00:35:21;;;;;;;16.45;10.38;;;;;;;6.62;100.00;99926.75;6100034;19;20002;-72
2024/01/31 00:37:21;;;;;;;15.38;9.65;;;;;;;6.57;100.00;99919.47;6099461;19;20778;-73
2024/01/31 00:39:26;;;;;;;17.60;9.73;;;;;;;6.64;100.00;99932.78;6100326;19;20007;-73
2024/01/31 00:41:26;;;;;;;14.85;8.95;;;;;;;6.60;100.00;99927.09;6099922;19;20007;-73
2024/01/31 00:43:26;;;;;;;17.60;9.63;;;;;;;6.63;100.00;99928.41;6104870;19;20013;-73
2024/01/31 00:45:27;;;;;;;14.40;8.88;;;;;;;6.62;100.00;99932.25;6104129;19;20019;-73
2024/01/31 00:47:28;;;;;;;14.82;8.93;;;;;;;6.65;100.00;99924.19;6105901;19;20010;-72
2024/01/31 00:49:28;;;;;;;14.55;8.88;;;;;;;6.64;100.00;99922.59;6111504;19;20403;-72
2024/01/31 00:51:28;;;;;;;17.95;8.80;;;;;;;6.61;100.00;99916.88;6112796;19;20164;-73
2024/01/31 00:53:30;;;;;;;14.43;8.23;;;;;;;6.58;100.00;99917.53;6112785;19;20066;-73
2024/01/31 00:55:30;;;;;;;14.45;8.07;;;;;;;6.56;100.00;99920.59;6112800;19;20090;-72
2024/01/31 00:57:31;;;;;;;14.27;8.35;;;;;;;6.55;100.00;99918.97;6112042;19;20036;-72
2024/01/31 00:59:31;;;;;;;12.98;8.50;;;;;;;6.54;100.00;99931.13;6111686;19;20017;-72
2024/01/31 01:01:32;;;;;;;12.20;7.80;;;;;;;6.54;100.00;99928.38;6111826;19;20098;-73
2024/01/31 01:03:32;;;;;;;15.88;7.88;;;;;;;6.53;100.00;99923.16;6112550;19;20017;-73
2024/01/31 01:05:32;;;;;;;12.60;7.55;;;;;;;6.49;100.00;99912.00;6112524;19;20040;-72
2024/01/31 01:07:33;;;;;;;15.32;7.93;;;;;;;6.47;100.00;99917.00;6112146;19;20010;-72
2024/01/31 01:09:34;;;;;;;13.57;8.07;;;;;;;6.39;100.00;99932.31;6110851;19;20035;-72
2024/01/31 01:11:35;;;;;;;11.15;7.30;;;;;;;6.39;100.00;99920.50;6112375;19;20003;-73
2024/01/31 01:13:35;;;;;;;13.80;7.90;;;;;;;6.51;100.00;99925.41;6111665;19;20447;-72
2024/01/31 01:15:35;;;;;;;13.52;8.15;;;;;;;6.44;100.00;99918.44;6111967;19;20010;-72
2024/01/31 01:17:36;;;;;;;14.98;7.90;;;;;;;6.40;100.00;99922.13;6112803;19;20007;-72
2024/01/31 01:19:36;;;;;;;12.80;8.13;;;;;;;6.31;100.00;99918.53;6111832;19;20015;-72
2024/01/31 01:21:37;;;;;;;13.07;8.40;;;;;;;6.27;100.00;99921.09;6111869;19;20006;-72
2024/01/31 01:23:38;;;;;;;11.07;7.55;;;;;;;6.24;100.00;99916.22;6111626;19;20023;-73
2024/01/31 01:25:38;;;;;;;11.63;7.35;;;;;;;6.19;100.00;99919.91;6112822;19;20473;-73
2024/01/31 01:27:39;;;;;;;9.95;7.32;;;;;;;6.11;100.00;99923.41;6110857;19;20011;-73
2024/01/31 01:29:39;;;;;;;12.45;7.28;;;;;;;6.05;100.00;99923.88;6109842;19;20010;-73
2024/01/31 01:31:39;;;;;;;12.50;7.55;;;;;;;6.02;100.00;99925.28;6112774;19;20002;-72
2024/01/31 01:33:40;;;;;;;13.23;7.63;;;;;;;6.01;100.00;99925.59;6112224;19;20023;-73
2024/01/31 01:35:40;;;;;;;17.20;8.57;;;;;;;5.94;100.00;99917.78;6111165;19;20008;-72
2024/01/31 01:37:40;;;;;;;13.00;8.15;;;;;;;5.98;100.00;99918.00;6111116;19;20459;-72
2024/01/31 01:39:43;;;;;;;14.07;7.75;;;;;;;5.89;100.00;99924.22;6110135;19;20459;-73
2024/01/31 01:41:48;;;;;;;12.02;7.60;;;;;;;5.90;100.00;99923.09;6111622;19;20034;-72
2024/01/31 01:43:48;;;;;;;10.65;7.25;;;;;;;5.84;100.00;99931.75;6111201;19;20090;-72
2024/01/31 01:45:55;;;;;;;11.38;6.90;;;;;;;5.81;100.00;99933.19;6111178;19;20406;-72
2024/01/31 01:47:55;;;;;;;9.27;6.47;;;;;;;5.81;100.00;99935.13;6111283;19;20003;-72
2024/01/31 01:49:56;;;;;;;10.38;7.47;;;;;;;5.76;100.00;99937.97;6110038;19;20026;-72
2024/01/31 01:51:57;;;;;;;15.45;6.90;;;;;;;5.72;100.00;99932.31;6112416;19;20583;-72
2024/01/31 01:53:57;;;;;;;12.48;6.57;;;;;;;5.73;100.00;99930.38;6110765;19;20002;-72
2024/01/31 01:55:58;;;;;;;9.95;7.10;;;;;;;5.77;100.00;99925.88;6109661;19;20002;-72
2024/01/31 01:57:58;;;;;;;10.35;6.55;;;;;;;5.69;100.00;99935.66;6110715;19;19999;-72
2024/01/31 01:59:59;;;;;;;9.73;6.38;;;;;;;5.61;100.00;99928.97;6111020;19;20082;-73
2024/01/31 02:02:00;;;;;;;11.32;6.65;;;;;;;5.59;100.00;99927.66;6111730;19;20491;-72
2024/01/31 02:04:02;;;;;;;12.65;8.02;;;;;;;5.58;100.00;99940.59;6111662;19;20002;-72
2024/01/31 02:06:03;;;;;;;26.08;13.85;;;;;;;5.55;100.00;99929.41;6109385;19;20078;-72
2024/01/31 02:08:04;;;;;;;27.33;16.52;;;;;;;5.52;100.00;99938.25;6111140;19;20324;-72
2024/01/31 02:10:05;;;;;;;22.00;13.10;;;;;;;5.52;100.00;99943.75;6109848;19;20002;-73
2024/01/31 02:12:06;;;;;;;14.50;8.52;;;;;;;5.50;100.00;99948.75;6110516;19;20640;-72
2024/01/31 02:14:06;;;;;;;10.80;7.85;;;;;;;5.47;100.00;99946.63;6110546;19;20003;-72
2024/01/31 02:16:06;;;;;;;11.75;7.50;;;;;;;5.46;100.00;99945.81;6110319;19;20544;-73
2024/01/31 02:18:07;;;;;;;14.30;9.32;;;;;;;5.51;100.00;99950.34;6110442;19;19998;-72
2024/01/31 02:20:07;;;;;;;13.52;8.27;;;;;;;5.54;100.00;99950.53;6110479;19;20384;-72
2024/01/31 02:22:20;;;;;;;10.05;6.78;;;;;;;5.53;100.00;99945.38;6111007;19;20007;-72
2024/01/31 02:24:21;;;;;;;14.77;9.05;;;;;;;5.55;100.00;99946.69;6108457;19;20003;-72
2024/01/31 02:26:21;;;;;;;13.25;8.13;;;;;;;5.48;100.00;99940.00;6108145;19;20109;-72
2024/01/31 02:28:21;;;;;;;11.98;7.65;;;;;;;5.47;100.00;99943.88;6107946;19;20003;-72
2024/01/31 02:30:21;;;;;;;14.65;9.15;;;;;;;5.42;100.00;99949.47;6110447;19;20116;-72
2024/01/31 02:32:22;;;;;;;15.15;9.38;;;;;;;5.34;100.00;99940.84;6109614;19;20003;-73
2024/01/31 02:34:22;;;;;;;16.42;9.73;;;;;;;5.30;100.00;99936.28;6110907;19;20451;-72
2024/01/31 02:36:22;;;;;;;15.13;9.13;;;;;;;5.26;100.00;99943.50;6109285;19;20019;-73
2024/01/31 02:38:23;;;;;;;15.10;9.52;;;;;;;5.23;100.00;99952.34;6109044;19;20007;-72
2024/01/31 02:40:23;;;;;;;11.50;8.00;;;;;;;5.15;100.00;99945.66;6109563;19;20256;-72
2024/01/31 02:42:24;;;;;;;13.05;8.23;;;;;;;5.11;100.00;99939.13;6110252;19;20006;-73
2024/01/31 02:44:24;;;;;;;14.77;8.18;;;;;;;5.04;100.00;99930.50;6109854;19;20918;-72
2024/01/31 02:46:25;;;;;;;13.85;8.43;;;;;;;4.98;100.00;99942.72;6109310;19;20582;-72
2024/01/31 02:48:25;;;;;;;11.90;7.47;;;;;;;4.93;100.00;99932.66;6109151;19;20452;-72
2024/01/31 02:50:26;;;;;;;15.10;7.13;;;;;;;4.91;100.00;99945.06;6110592;19;20010;-72
2024/01/31 02:52:27;;;;;;;11.05;7.65;;;;;;;4.84;100.00;99942.72;6109452;19;20463;-72
2024/01/31 02:54:27;;;;;;;11.88;7.28;;;;;;;4.81;100.00;99948.00;6109860;19;20674;-72
2024/01/31 02:56:27;;;;;;;12.25;7.75;;;;;;;4.75;100.00;99944.53;6107906;19;20472;-73
2024/01/31 02:58:28;;;;;;;14.70;7.70;;;;;;;4.71;100.00;99946.25;6108752;19;20101;-73
2024/01/31 03:00:28;;;;;;;12.05;7.93;;;;;;;4.67;100.00;99940.56;6109115;19;20007;-72
2024/01/31 03:02:29;;;;;;;13.77;7.53;;;;;;;4.61;100.00;99930.00;6109607;19;20365;-72
2024/01/31 03:04:29;;;;;;;13.60;8.05;;;;;;;4.58;100.00;99936.91;6109112;19;20006;-72
2024/01/31 03:06:29;;;;;;;14.63;7.28;;;;;;;4.51;100.00;99944.72;6104627;19;20003;-73
2024/01/31 03:08:30;;;;;;;14.45;8.55;;;;;;;4.45;100.00;99941.22;6107246;19;20002;-73
2024/01/31 03:10:32;;;;;;;12.90;7.35;;;;;;;4.41;100.00;99942.97;6107057;19;20026;-73
2024/01/31 03:12:32;;;;;;;13.40;8.15;;;;;;;4.35;100.00;99946.09;6107634;19;20014;-73
2024/01/31 03:14:33;;;;;;;15.38;8.00;;;;;;;4.31;100.00;99937.69;6109882;19;20073;-72
2024/01/31 03:16:34;;;;;;;12.40;7.43;;;;;;;4.25;100.00;99941.59;6106494;19;20033;-73
2024/01/31 03:18:34;;;;;;;10.10;7.55;;;;;;;4.21;100.00;99935.09;6106600;19;20454;-72
2024/01/31 03:20:34;;;;;;;11.07;7.13;;;;;;;4.17;100.00;99948.59;6108785;19;20010;-72
2024/01/31 03:22:35;;;;;;;13.43;8.13;;;;;;;4.14;100.00;99953.88;6107158;19;20703;-73
2024/01/31 03:24:35;;;;;;;14.07;7.35;;;;;;;4.08;100.00;99955.06;6108148;19;20078;-73
2024/01/31 03:26:35;;;;;;;12.07;6.90;;;;;;;3.98;100.00;99958.78;6106976;19;20014;-72
2024/01/31 03:28:36;;;;;;;12.60;7.15;;;;;;;3.93;100.00;99970.59;6107667;19;20006;-72
2024/01/31 03:30:36;;;;;;;13.20;7.60;;;;;;;3.87;100.00;99957.28;6108280;19;19994;-72
2024/01/31 03:32:36;;;;;;;20.45;8.20;;;;;;;3.81;100.00;99966.72;6107991;19;19999;-72
2024/01/31 03:34:37;;;;;;;13.13;8.18;;;;;;;3.74;100.00;99969.81;6108652;19;20013;-73
2024/01/31 03:36:37;;;;;;;13.65;7.82;;;;;;;3.73;100.00;99968.19;6106808;19;20003;-73
2024/01/31 03:38:40;;;;;;;12.38;7.15;;;;;;;3.70;100.00;99976.16;6106737;19;20463;-73
2024/01/31 03:40:40;;;;;;;13.15;8.38;;;;;;;3.66;100.00;99984.16;6106415;19;20009;-72
2024/01/31 03:42:41;;;;;;;14.48;8.27;;;;;;;3.64;100.00;99979.00;6106553;19;20100;-73
2024/01/31 03:44:41;;;;;;;12.07;7.63;;;;;;;3.66;100.00;99987.72;6107459;19;20054;-73
2024/01/31 03:46:42;;;;;;;13.30;7.22;;;;;;;3.65;100.00;99980.63;6099620;19;20002;-72
2024/01/31 03:48:42;;;;;;;12.63;7.85;;;;;;;3.67;100.00;99986.59;6104711;19;20002;-73
2024/01/31 03:50:42;;;;;;;15.60;7.95;;;;;;;3.66;100.00;99987.72;6106833;19;20009;-72
2024/01/31 03:52:42;;;;;;;12.30;7.18;;;;;;;3.63;100.00;99987.47;6106290;19;20009;-73
2024/01/31 03:54:43;;;;;;;13.43;6.88;;;;;;;3.63;100.00;99992.94;6107340;19;20338;-72
2024/01/31 03:56:43;;;;;;;11.00;6.93;;;;;;;3.63;100.00;100006.63;6106395;19;20023;-73
2024/01/31 03:58:44;;;;;;;12.82;6.95;;;;;;;3.63;100.00;99996.50;6105976;19;20014;-73
2024/01/31 04:00:45;;;;;;;14.10;7.53;;;;;;;3.65;100.00;99996.22;6107394;19;20376;-72
2024/01/31 04:02:46;;;;;;;13.80;7.45;;;;;;;3.67;100.00;99996.75;6107857;19;20078;-72
2024/01/31 04:04:46;;;;;;;13.18;7.03;;;;;;;3.67;100.00;100005.78;6105907;19;20018;-72
2024/01/31 04:06:46;;;;;;;14.60;7.68;;;;;;;3.64;100.00;100008.25;6103860;19;20006;-73
2024/01/31 04:08:46;;;;;;;11.43;6.82;;;;;;;3.58;100.00;100006.72;6107113;19;20011;-72
2024/01/31 04:10:47;;;;;;;11.13;6.60;;;;;;;3.56;100.00;100008.94;6106611;19;20037;-72
2024/01/31 04:12:48;;;;;;;11.13;7.05;;;;;;;3.53;100.00;100013.06;6104113;19;20003;-72
2024/01/31 04:14:48;;;;;;;8.80;6.43;;;;;;;3.54;100.00;100011.97;6106471;19;20289;-72
2024/01/31 04:16:49;;;;;;;10.90;6.20;;;;;;;3.55;100.00;100021.78;6106093;19;19999;-72
2024/01/31 04:18:49;;;;;;;12.40;6.57;;;;;;;3.53;100.00;100012.25;6110292;19;20006;-72
2024/01/31 04:20:49;;;;;;;15.02;6.35;;;;;;;3.54;100.00;100017.44;6112219;19;20003;-72
2024/01/31 04:22:50;;;;;;;13.38;7.38;;;;;;;3.51;100.00;100020.75;6112676;19;20011;-72
2024/01/31 04:24:51;;;;;;;12.85;6.82;;;;;;;3.49;100.00;100027.66;6112399;19;20006;-72
2024/01/31 04:26:52;;;;;;;11.93;6.80;;;;;;;3.55;100.00;100040.13;6110794;19;20500;-72
2024/01/31 04:28:52;;;;;;;12.05;7.05;;;;;;;3.52;100.00;100041.53;6110599;19;20006;-72
2024/01/31 04:30:52;;;;;;;9.93;6.57;;;;;;;3.53;100.00;100045.91;6111072;19;20003;-72
2024/01/31 04:32:53;;;;;;;11.32;6.53;;;;;;;3.53;100.00;100042.34;6112365;19;20014;-72
2024/01/31 04:34:53;;;;;;;11.50;7.20;;;;;;;3.55;100.00;100034.66;6111599;19;20266;-73
2024/01/31 04:36:53;;;;;;;12.85;7.30;;;;;;;3.58;100.00;100031.34;6111382;19;20467;-72
2024/01/31 04:38:54;;;;;;;11.50;5.88;;;;;;;3.62;100.00;100029.66;6111245;19;20003;-72
2024/01/31 04:40:54;;;;;;;9.10;5.82;;;;;;;3.62;100.00;100021.44;6111319;19;20007;-72
2024/01/31 04:42:54;;;;;;;14.18;6.70;;;;;;;3.65;100.00;100024.41;6111098;19;20006;-72
2024/01/31 04:44:54;;;;;;;9.07;6.03;;;;;;;3.65;100.00;100020.88;6109239;19;20044;-72
2024/01/31 04:46:55;;;;;;;8.40;5.88;;;;;;;3.66;100.00;100022.50;6107838;19;20344;-72
2024/01/31 04:48:55;;;;;;;10.90;7.07;;;;;;;3.66;100.00;100026.03;6104948;19;20070;-72
2024/01/31 04:50:55;;;;;;;9.35;5.95;;;;;;;3.69;100.00;100021.88;6103812;19;20086;-72
2024/01/31 04:52:56;;;;;;;11.68;6.35;;;;;;;3.71;100.00;100018.84;6104782;19;20014;-72
2024/01/31 04:54:56;;;;;;;11.93;6.30;;;;;;;3.70;100.00;100014.50;6104318;19;20368;-72
2024/01/31 04:56:56;;;;;;;12.20;6.90;;;;;;;3.70;100.00;100017.22;6103356;19;20011;-72
2024/01/31 04:58:56;;;;;;;10.00;6.90;;;;;;;3.74;100.00;100007.34;6103824;19;20010;-72
2024/01/31 05:00:57;;;;;;;13.10;6.68;;;;;;;3.74;100.00;100015.53;6105051;19;20960;-72
2024/01/31 05:02:57;;;;;;;19.45;8.57;;;;;;;3.73;100.00;100009.25;6104888;19;20306;-72
2024/01/31 05:05:00;;;;;;;19.02;9.05;;;;;;;3.73;100.00;100011.19;6103723;19;20003;-72
2024/01/31 05:07:00;;;;;;;10.73;6.30;;;;;;;3.78;100.00;100013.84;6103015;19;20013;-72
2024/01/31 05:09:00;;;;;;;14.40;5.55;;;;;;;3.78;100.00;100000.13;6103847;19;20002;-72
2024/01/31 05:11:01;;;;;;;10.73;6.00;;;;;;;3.87;100.00;100003.84;6104207;19;20007;-72
2024/01/31 05:13:02;;;;;;;10.38;6.22;;;;;;;3.92;100.00;100006.50;6103890;19;20014;-72
2024/01/31 05:15:02;;;;;;;9.38;5.60;;;;;;;3.98;100.00;100008.06;6104403;19;20031;-73
2024/01/31 05:17:03;;;;;;;9.75;5.57;;;;;;;4.01;100.00;100015.69;6102925;19;20021;-72
2024/01/31 05:19:03;;;;;;;10.55;6.25;;;;;;;4.03;100.00;100018.13;6102778;19;20450;-72
2024/01/31 05:21:04;;;;;;;13.05;6.35;;;;;;;4.04;100.00;100017.81;6103645;19;20490;-72
2024/01/31 05:23:04;;;;;;;9.13;5.85;;;;;;;4.07;100.00;100017.25;6102228;19;20401;-72
2024/01/31 05:25:06;;;;;;;13.00;6.13;;;;;;;4.05;100.00;100019.44;6101516;19;20006;-72
2024/01/31 05:27:08;;;;;;;10.40;6.32;;;;;;;4.04;100.00;100028.78;6101153;19;20112;-72
2024/01/31 05:29:09;;;;;;;15.70;8.70;;;;;;;4.03;100.00;100026.34;6098881;19;20490;-72
2024/01/31 05:31:09;;;;;;;16.65;9.63;;;;;;;4.06;100.00;100031.22;6102010;19;20023;-72
2024/01/31 05:33:09;;;;;;;16.45;8.80;;;;;;;4.03;100.00;100024.41;6101627;19;20011;-72
2024/01/31 05:35:10;;;;;;;16.40;10.07;;;;;;;4.03;100.00;100029.06;6101745;19;20010;-72
2024/01/31 05:37:10;;;;;;;17.10;10.98;;;;;;;4.04;100.00;100023.28;6101172;19;20410;-72
2024/01/31 05:39:11;;;;;;;16.13;9.27;;;;;;;4.04;100.00;100030.69;6102196;19;20082;-72
2024/01/31 05:41:12;;;;;;;13.23;7.65;;;;;;;4.02;100.00;100031.00;6101644;19;20014;-72
2024/01/31 05:43:12;;;;;;;10.32;6.45;;;;;;;4.03;100.00;100035.38;6100628;19;20376;-72
2024/01/31 05:45:13;;;;;;;14.02;7.32;;;;;;;4.02;100.00;100019.22;6102105;19;20003;-72
2024/01/31 05:47:13;;;;;;;14.15;7.00;;;;;;;3.99;100.00;100030.78;6102424;19;20082;-72
2024/01/31 05:49:13;;;;;;;10.00;6.60;;;;;;;3.99;100.00;100023.38;6105432;19;20003;-72
2024/01/31 05:51:14;;;;;;;8.40;4.97;;;;;;;4.00;100.00;100016.78;6110251;19;20005;-73
2024/01/31 05:53:14;;;;;;;10.52;5.53;;;;;;;4.00;100.00;100019.53;6106910;19;20011;-72
2024/01/31 05:55:15;;;;;;;8.45;5.38;;;;;;;4.00;100.00;100013.25;6109244;19;20010;-72
2024/01/31 05:57:15;;;;;;;8.57;4.93;;;;;;;3.99;100.00;100012.44;6107932;19;20006;-72
2024/01/31 05:59:15;;;;;;;9.55;4.82;;;;;;;4.00;100.00;100013.25;6109609;19;20482;-72
2024/01/31 06:01:15;;;;;;;6.97;4.30;;;;;;;4.00;100.00;100008.56;6110075;19;20002;-72
2024/01/31 06:03:16;;;;;;;7.00;4.60;;;;;;;3.99;100.00;99997.94;6108479;19;20030;-72
2024/01/31 06:05:16;;;;;;;7.38;4.40;;;;;;;4.06;100.00;100003.84;6109635;19;20086;-72
2024/01/31 06:07:18;;;;;;;6.80;4.07;;;;;;;4.07;100.00;100002.72;6106925;19;20011;-72
2024/01/31 06:09:18;;;;;;;6.20;4.55;;;;;;;4.07;100.00;100008.22;6109976;19;20011;-72
2024/01/31 06:11:18;;;;;;;5.47;3.60;;;;;;;4.13;100.00;99998.78;6110296;19;20056;-72
2024/01/31 06:13:19;;;;;;;5.57;3.60;;;;;;;4.12;100.00;99999.91;6109015;19;20006;-72
2024/01/31 06:15:20;;;;;;;6.85;4.05;;;;;;;4.13;100.00;99998.78;6109609;19;20006;-72
2024/01/31 06:17:21;;;;;;;6.93;4.63;;;;;;;4.15;100.00;99991.91;6109605;19;20531;-72
2024/01/31 06:19:21;;;;;;;7.80;4.82;;;;;;;4.17;100.00;99997.91;6109995;19;20023;-72
2024/01/31 06:21:21;;;;;;;5.43;4.15;;;;;;;4.16;100.00;99993.53;6110442;19;20010;-72
2024/01/31 06:23:22;;;;;;;6.43;4.30;;;;;;;4.17;100.00;99991.59;6110262;19;20018;-72
2024/01/31 06:25:22;;;;;;;11.85;6.10;;;;;;;4.20;100.00;99996.47;6109908;19;20099;-72
2024/01/31 06:27:22;;;;;;;10.38;6.82;;;;;;;4.18;100.00;100004.19;6108357;19;20014;-72
2024/01/31 06:29:23;;;;;;;11.38;5.97;;;;;;;4.17;100.00;100008.84;6110265;19;20522;-72
2024/01/31 06:31:28;;;;;;;6.47;3.97;;;;;;;4.22;100.00;100010.72;6109809;19;20102;-72
2024/01/31 06:33:31;;;;;;;7.25;4.38;;;;;;;4.28;100.00;100009.50;6108734;19;20438;-72
2024/01/31 06:35:32;;;;;;;5.80;4.05;;;;;;;4.27;100.00;100018.84;6109794;19;20332;-72
2024/01/31 06:37:33;;;;;;;6.07;3.53;;;;;;;4.28;100.00;100020.47;6108359;19;20336;-72
2024/01/31 06:39:33;;;;;;;5.25;3.20;;;;;;;4.26;100.00;100032.84;6109779;19;20006;-72
2024/01/31 06:41:36;;;;;;;5.10;3.17;;;;;;;4.25;100.00;100032.03;6109503;19;20026;-72
2024/01/31 06:43:36;;;;;;;;;;;;;;;4.26;100.00;100032.84;6110452;19;20010;-72
2024/01/31 06:45:36;;;;;;;5.73;3.27;;;;;;;4.25;100.00;100042.16;6109395;19;19983;-72
2024/01/31 06:47:37;;;;;;;5.85;3.63;;;;;;;4.19;100.00;100044.97;6108330;19;20850;-72
2024/01/31 06:49:37;;;;;;;6.82;3.35;;;;;;;4.19;100.00;100041.41;6108897;19;20078;-72
2024/01/31 06:51:37;;;;;;;7.10;3.70;;;;;;;4.27;100.00;100042.69;6109144;19;20044;-72
2024/01/31 06:53:37;;;;;;;4.10;3.10;;;;;;;4.21;100.00;100044.66;6110181;19;20329;-72
2024/01/31 06:55:38;;;;;;;6.07;3.80;;;;;;;4.17;100.00;100041.72;6109441;19;20569;-72
2024/01/31 06:57:38;;;;;;;6.20;4.20;;;;;;;4.16;100.00;100044.78;6109134;19;20011;-72
2024/01/31 06:59:38;;;;;;;5.72;3.50;;;;;;;4.07;100.00;100039.16;6108773;19;20302;-72
2024/01/31 07:01:39;;;;;;;6.25;3.53;;;;;;;4.07;100.00;100054.78;6108964;19;20022;-72
2024/01/31 07:03:39;;;;;;;9.05;4.07;;;;;;;4.10;100.00;100054.16;6109879;19;20006;-72
2024/01/31 07:05:41;;;;;;;5.90;3.88;;;;;;;4.10;100.00;100063.19;6109366;19;20074;-72
2024/01/31 07:07:41;;;;;;;6.47;3.95;;;;;;;4.09;100.00;100063.50;6108544;19;20010;-72
2024/01/31 07:09:42;;;;;;;5.85;3.35;;;;;;;4.06;100.00;100073.13;6109593;19;20491;-72
2024/01/31 07:11:42;;;;;;;5.25;3.50;;;;;;;4.03;100.00;100060.00;6109034;19;20246;-72
2024/01/31 07:13:42;;;;;;;5.18;2.90;;;;;;;4.04;100.00;100058.09;6109802;19;20828;-72
2024/01/31 07:15:42;;;;;;;4.97;3.10;;;;;;;4.03;100.00;100060.00;6109118;19;20007;-72
2024/01/31 07:17:43;;;;;;;6.05;3.65;;;;;;;4.02;100.00;100060.31;6107436;19;20069;-72
2024/01/31 07:19:43;;;;;;;6.18;3.85;;;;;;;4.02;100.00;100071.28;6109483;19;20313;-72
2024/01/31 07:21:44;;;;;;;8.27;4.28;;;;;;;4.05;100.00;100068.75;6109484;19;20014;-72
2024/01/31 07:23:44;;;;;;;5.47;4.25;;;;;;;4.04;100.00;100066.31;6108586;19;20475;-72
2024/01/31 07:25:44;;;;;;;7.00;3.75;;;;;;;4.03;100.00;100068.22;6109189;19;20323;-72
2024/01/31 07:27:45;;;;;;;6.95;3.53;;;;;;;4.01;100.00;100067.72;6108062;19;20057;-72
2024/01/31 07:29:48;;;;;;;7.53;4.07;;;;;;;4.00;100.00;100062.53;6108020;19;20002;-72
2024/01/31 07:31:49;;;;;;;6.07;4.25;;;;;;;3.99;100.00;100056.25;6108153;19;20551;-72
2024/01/31 07:33:49;;;;;;;5.60;3.85;;;;;;;3.99;100.00;100059.00;6109611;19;20018;-72
2024/01/31 07:35:49;;;;;;;7.00;4.32;;;;;;;3.99;100.00;100058.19;6106811;19;20015;-72
2024/01/31 07:37:50;;;;;;;7.88;4.85;;;;;;;3.98;100.00;100059.28;6108688;19;20014;-72
2024/01/31 07:39:50;;;;;;;11.90;5.90;;;;;;;3.97;100.00;100066.66;6107341;19;20070;-72
2024/01/31 07:41:52;;;;;;;12.43;6.38;;;;;;;3.99;100.00;100069.94;6107893;19;20003;-72
2024/01/31 07:43:52;;;;;;;8.90;5.82;;;;;;;4.02;100.00;100074.00;6108281;19;20003;-73
2024/01/31 07:45:53;;;;;;;5.05;3.95;;;;;;;4.00;100.00;100068.03;6107495;19;20002;-72
2024/01/31 07:47:53;;;;;;;6.22;3.95;;;;;;;4.00;100.00;100073.50;6108659;19;20111;-72
2024/01/31 07:49:54;;;;;;;5.85;3.95;;;;;;;4.03;100.00;100075.63;6107960;19;20463;-72
2024/01/31 07:51:56;;;;;;;5.45;3.42;;;;;;;4.01;100.00;100081.41;6106364;19;20003;-72
2024/01/31 07:53:57;;;;;;;4.90;3.08;;;;;;;4.01;100.00;100075.13;6107278;19;20003;-72
2024/01/31 07:55:57;;;;;;;6.47;3.10;;;;;;;4.02;100.00;100080.28;6107499;19;20013;-72
2024/01/31 07:57:57;;;;;;;6.30;3.63;;;;;;;4.03;100.00;100070.97;6107598;19;20028;-72
2024/01/31 07:59:58;;;;;;;4.97;3.05;;;;;;;4.08;100.00;100081.06;6106719;19;20040;-72
2024/01/31 08:01:58;;;;;;;4.47;3.17;;;;;;;4.11;100.00;100077.72;6108380;19;20339;-72
2024/01/31 08:03:58;;;;;;;5.72;2.88;;;;;;;4.11;100.00;100084.00;6107558;19;19999;-72
2024/01/31 08:05:59;;;;;;;7.28;3.42;;;;;;;4.10;100.00;100093.31;6106231;19;20029;-72
2024/01/31 08:07:59;;;;;;;5.68;3.20;;;;;;;4.11;100.00;100086.75;6108217;19;20304;-72
2024/01/31 08:10:00;;;;;;;5.65;3.38;;;;;;;4.16;100.00;100085.88;6107019;19;20006;-72
2024/01/31 08:12:00;;;;;;;5.72;3.53;;;;;;;4.15;100.00;100085.06;6107703;19;20002;-72
2024/01/31 08:14:00;;;;;;;5.55;3.55;;;;;;;4.16;100.00;100088.59;6107429;19;20414;-72
2024/01/31 08:16:01;;;;;;;6.20;3.83;;;;;;;4.20;100.00;100089.63;6106767;19;20066;-72
2024/01/31 08:18:02;;;;;;;5.40;3.58;;;;;;;4.20;100.00;100090.44;6106882;19;20007;-72
2024/01/31 08:20:03;;;;;;;8.00;3.63;;;;;;;4.18;100.00;100084.44;6106601;19;20066;-72
2024/01/31 08:22:04;;;;;;;5.40;3.33;;;;;;;4.21;100.00;100088.50;6107903;19;20036;-72
2024/01/31 08:24:04;;;;;;;7.93;4.43;;;;;;;4.24;100.00;100079.72;6106852;19;20010;-72
2024/01/31 08:26:06;;;;;;;6.60;3.88;;;;;;;4.27;100.00;100078.28;6106034;19;20002;-72
2024/01/31 08:28:06;;;;;;;6.55;4.07;;;;;;;4.33;100.00;100075.19;6106240;19;19994;-72
2024/01/31 08:30:07;;;;;;;6.82;4.35;;;;;;;4.33;100.00;100083.41;6106810;19;20003;-72
2024/01/31 08:32:07;;;;;;;5.88;4.10;;;;;;;4.37;100.00;100081.69;6107761;19;20009;-72
2024/01/31 08:34:08;;;;;;;6.03;3.38;;;;;;;4.43;100.00;100076.94;6106240;19;20011;-72
2024/01/31 08:36:08;;;;;;;6.30;3.58;;;;;;;4.45;100.00;100074.72;6106078;19;20364;-72
2024/01/31 08:38:08;;;;;;;6.10;4.03;;;;;;;4.44;100.00;100075.84;6106601;19;19995;-72
2024/01/31 08:40:10;;;;;;;6.25;4.13;;;;;;;4.44;100.00;100084.88;6105786;19;20011;-72
2024/01/31 08:42:11;;;;;;;8.43;4.30;;;;;;;4.51;100.00;100079.00;6106780;19;19998;-72
2024/01/31 08:44:12;;;;;;;8.73;5.22;;;;;;;4.54;100.00;100085.81;6107027;19;20014;-72
2024/01/31 08:46:13;;;;;;;7.72;4.50;;;;;;;4.57;100.00;100085.22;6105852;19;20011;-72
2024/01/31 08:48:13;;;;;;;10.48;5.53;;;;;;;4.57;100.00;100086.03;6098896;19;20017;-72
2024/01/31 08:50:13;;;;;;;7.57;4.18;;;;;;;4.63;100.00;100087.56;6106977;19;20563;-72
2024/01/31 08:52:14;;;;;;;7.43;3.70;;;;;;;4.63;100.00;100082.09;6106366;19;20074;-72
2024/01/31 08:54:14;;;;;;;6.80;3.53;;;;;;;4.69;100.00;100091.03;6105986;19;20058;-72
2024/01/31 08:56:15;;;;;;;6.47;3.90;;;;;;;4.65;100.00;100095.53;6106056;19;20878;-72
2024/01/31 08:58:15;;;;;;;6.03;3.60;;;;;;;4.71;100.00;100078.66;6105378;19;20010;-72
2024/01/31 09:00:15;;;;;;;6.80;3.80;;;;;;;4.74;100.00;100088.22;6105645;19;20058;-72
2024/01/31 09:02:16;;;;;;;8.95;3.78;;;;;;;4.79;100.00;100097.16;6106234;19;20344;-72
2024/01/31 09:04:16;;;;;;;8.75;4.88;;;;;;;4.82;100.00;100086.72;6107102;19;20014;-72
2024/01/31 09:06:17;;;;;;;8.70;3.92;;;;;;;4.79;100.00;100085.38;6109404;19;20007;-72
2024/01/31 09:08:17;;;;;;;6.78;3.85;;;;;;;4.81;100.00;100090.59;6110842;19;20002;-72
2024/01/31 09:10:17;;;;;;;7.82;4.13;;;;;;;4.79;100.00;100097.16;6111490;19;20026;-72
2024/01/31 09:12:19;;;;;;;5.63;3.00;;;;;;;4.86;100.00;100117.91;6111455;19;20010;-72
2024/01/31 09:14:19;;;;;;;10.57;4.07;;;;;;;4.84;100.00;100112.72;6111865;19;20013;-72
2024/01/31 09:16:19;;;;;;;6.85;4.03;;;;;;;4.85;100.00;100116.28;6110057;19;20014;-72
2024/01/31 09:18:20;;;;;;;5.93;3.28;;;;;;;4.87;100.00;100114.06;6112009;19;20106;-72
2024/01/31 09:20:20;;;;;;;9.93;3.72;;;;;;;4.94;100.00;100119.97;6111529;19;20023;-72